Jalma Topic — A8IQ6 — position and weather

sailwx.info

Track history (hours):
 
Tides and Currents Weather Stations Pressure Air Temp Water Temp Dewpoint Dewpoint Depression Visibility Wind Speed Wind Dir Waves Ship Positions

Jalma Topic

Last reported at 2017-Nov-17 02:20 UTC. Time now 2017-Dec-11 21:04 UTC.
Position N 01°15' E 104°04'.
Warning: this ship's position is 24 days out of date.

Length 183 m; draft 11.2 m.

Type: Cargo ship. MMSI: 636012871.

Date/timePositionNaut miles runAvg speedWind from/ knotsBaromVisibWave heightAir tempDewpointWater temp
2017-Nov-17 02:20N 01°15' E 104°04'411.8
2017-Nov-17 01:59N 01°15' E 104°00'3 7.2
2017-Nov-17 01:30N 01°14' E 103°57'3 6.3
2017-Nov-17 00:59N 01°17' E 103°55'0 0.1
2017-Nov-16 22:47N 01°17' E 103°55'0 0.1
2017-Nov-16 22:29N 01°17' E 103°55'0 0.0
2017-Nov-16 21:59N 01°17' E 103°55'0 0.0
2017-Nov-16 21:29N 01°17' E 103°55'0 0.0
2017-Nov-16 20:59N 01°17' E 103°55'0 0.1
2017-Nov-16 20:20N 01°17' E 103°55'0 0.0
2017-Nov-16 19:59N 01°17' E 103°55'0 0.0
2017-Nov-16 19:23N 01°17' E 103°55'0 0.0
2017-Nov-16 18:53N 01°17' E 103°55'0 0.0
2017-Nov-16 18:29N 01°17' E 103°55'0 0.0
2017-Nov-16 17:59N 01°17' E 103°55'0 0.1
2017-Nov-16 17:29N 01°17' E 103°55'0 0.0
2017-Nov-16 16:41N 01°17' E 103°55'0 0.0
2017-Nov-16 16:29N 01°17' E 103°55'0 0.0
2017-Nov-16 15:59N 01°17' E 103°55'0 0.0
2017-Nov-16 15:29N 01°17' E 103°55'0 0.0
2017-Nov-16 14:59N 01°17' E 103°55'0 0.0
2017-Nov-16 14:23N 01°17' E 103°55'0 0.0
2017-Nov-16 13:53N 01°17' E 103°55'0 0.0
2017-Nov-16 13:29N 01°17' E 103°55'0 0.0
2017-Nov-16 12:59N 01°17' E 103°55'0 0.0
2017-Nov-16 12:29N 01°17' E 103°55'0 0.0
2017-Nov-16 11:59N 01°17' E 103°55'0 0.0
2017-Nov-16 11:29N 01°17' E 103°55'0 0.0
2017-Nov-16 10:59N 01°17' E 103°55'0 1.0
2017-Nov-16 10:30N 01°16' E 103°55'2 4.4
2017-Nov-16 10:00N 01°15' E 103°57'2 4.0
2017-Nov-16 09:30N 01°14' E 103°56'4 7.6
2017-Nov-16 09:00N 01°12' E 103°53'4 7.3
2017-Nov-16 08:30N 01°10' E 103°50'4 8.2
2017-Nov-16 08:00N 01°08' E 103°46'5 9.5
2017-Nov-16 07:30N 01°05' E 103°43'510.5
2017-Nov-16 07:00N 01°03' E 103°38'612.3
2017-Nov-16 06:30N 01°07' E 103°32'1712.4
2017-Nov-16 05:08N 01°17' E 103°19'  
Track history (hours):
 
Tides and Currents Weather Stations Pressure Air Temp Water Temp Dewpoint Dewpoint Depression Visibility Wind Speed Wind Dir Waves Ship Positions

Jalma Topic

Last reported at 2017-Nov-17 02:20 UTC. Time now 2017-Dec-11 21:04 UTC.
Position N 01°15' E 104°04'.
Warning: this ship's position is 24 days out of date.

Length 183 m; draft 11.2 m.

Type: Cargo ship. MMSI: 636012871.

Date/timePositionNaut miles runAvg speedWind from/ knotsBaromVisibWave heightAir tempDewpointWater temp
2017-Nov-17 02:20N 01°15' E 104°04'411.8
2017-Nov-17 01:59N 01°15' E 104°00'3 7.2
2017-Nov-17 01:30N 01°14' E 103°57'3 6.3
2017-Nov-17 00:59N 01°17' E 103°55'0 0.1
2017-Nov-16 22:47N 01°17' E 103°55'0 0.1
2017-Nov-16 22:29N 01°17' E 103°55'0 0.0
2017-Nov-16 21:59N 01°17' E 103°55'0 0.0
2017-Nov-16 21:29N 01°17' E 103°55'0 0.0
2017-Nov-16 20:59N 01°17' E 103°55'0 0.1
2017-Nov-16 20:20N 01°17' E 103°55'0 0.0
2017-Nov-16 19:59N 01°17' E 103°55'0 0.0
2017-Nov-16 19:23N 01°17' E 103°55'0 0.0
2017-Nov-16 18:53N 01°17' E 103°55'0 0.0
2017-Nov-16 18:29N 01°17' E 103°55'0 0.0
2017-Nov-16 17:59N 01°17' E 103°55'0 0.1
2017-Nov-16 17:29N 01°17' E 103°55'0 0.0
2017-Nov-16 16:41N 01°17' E 103°55'0 0.0
2017-Nov-16 16:29N 01°17' E 103°55'0 0.0
2017-Nov-16 15:59N 01°17' E 103°55'0 0.0
2017-Nov-16 15:29N 01°17' E 103°55'0 0.0
2017-Nov-16 14:59N 01°17' E 103°55'0 0.0
2017-Nov-16 14:23N 01°17' E 103°55'0 0.0
2017-Nov-16 13:53N 01°17' E 103°55'0 0.0
2017-Nov-16 13:29N 01°17' E 103°55'0 0.0
2017-Nov-16 12:59N 01°17' E 103°55'0 0.0
2017-Nov-16 12:29N 01°17' E 103°55'0 0.0
2017-Nov-16 11:59N 01°17' E 103°55'0 0.0
2017-Nov-16 11:29N 01°17' E 103°55'0 0.0
2017-Nov-16 10:59N 01°17' E 103°55'0 1.0
2017-Nov-16 10:30N 01°16' E 103°55'2 4.4
2017-Nov-16 10:00N 01°15' E 103°57'2 4.0
2017-Nov-16 09:30N 01°14' E 103°56'4 7.6
2017-Nov-16 09:00N 01°12' E 103°53'4 7.3
2017-Nov-16 08:30N 01°10' E 103°50'4 8.2
2017-Nov-16 08:00N 01°08' E 103°46'5 9.5
2017-Nov-16 07:30N 01°05' E 103°43'510.5
2017-Nov-16 07:00N 01°03' E 103°38'612.3
2017-Nov-16 06:30N 01°07' E 103°32'1712.4
2017-Nov-16 05:08N 01°17' E 103°19'  

Dump ship's entire track history